Time;durP1;ratioP1;P1;durP2;ratioP2;P2;SDS_P1;SDS_P2;PMS_P1;PMS_P2;Temp;Humidity;BMP_temperature;BMP_pressure;BME280_temperature;BME280_humidity;BME280_pressure;Samples;Min_cycle;Max_cycle;Signal;HPM_P1;HPM_P2
2022/11/15 00:00:21;;;;;;;13.40;5.28;;;7.20;99.90;;;;;;5044993;28;20037;-82
2022/11/15 00:02:47;;;;;;;11.23;6.18;;;7.30;99.90;;;;;;5038487;28;20053;-81
2022/11/15 00:05:13;;;;;;;15.48;5.18;;;7.30;99.90;;;;;;5007753;28;20037;-78
2022/11/15 00:07:39;;;;;;;9.82;5.13;;;7.30;99.90;;;;;;5040176;28;20034;-80
2022/11/15 00:10:05;;;;;;;10.23;6.88;;;7.30;99.90;;;;;;5034929;28;20038;-81
2022/11/15 00:12:31;;;;;;;13.40;6.07;;;7.40;99.90;;;;;;5038487;28;20049;-81
2022/11/15 00:14:57;;;;;;;10.32;5.05;;;7.40;99.90;;;;;;5035764;28;20091;-81
2022/11/15 00:17:22;;;;;;;13.65;6.80;;;7.40;99.90;;;;;;5039964;28;20186;-80
2022/11/15 00:19:49;;;;;;;6.72;4.70;;;7.40;99.90;;;;;;5042502;28;20053;-81
2022/11/15 00:22:14;;;;;;;10.30;4.78;;;7.40;99.90;;;;;;5020188;28;20037;-80
2022/11/15 00:24:40;;;;;;;11.48;4.80;;;7.50;99.90;;;;;;5038125;28;20086;-80
2022/11/15 00:27:06;;;;;;;12.70;5.05;;;7.40;99.90;;;;;;5041926;28;20048;-82
2022/11/15 00:29:31;;;;;;;8.02;4.60;;;7.40;99.90;;;;;;5028412;28;20037;-80
2022/11/15 00:31:57;;;;;;;13.18;4.80;;;7.50;99.90;;;;;;5037955;28;20460;-81
2022/11/15 00:34:22;;;;;;;9.50;4.93;;;7.40;99.90;;;;;;5023724;28;20400;-80
2022/11/15 00:36:48;;;;;;;6.70;5.15;;;7.50;99.90;;;;;;5034425;28;20119;-80
2022/11/15 00:39:14;;;;;;;8.10;5.68;;;7.50;99.90;;;;;;5032748;28;20136;-83
2022/11/15 00:41:39;;;;;;;8.00;3.95;;;7.50;99.90;;;;;;5038027;28;20042;-81
2022/11/15 00:44:05;;;;;;;11.10;6.55;;;7.50;99.90;;;;;;5039457;28;20491;-81
2022/11/15 00:46:31;;;;;;;10.55;5.10;;;7.50;99.90;;;;;;5041479;28;20049;-82
2022/11/15 00:48:56;;;;;;;9.10;4.55;;;7.50;99.90;;;;;;5038724;28;20037;-81
2022/11/15 00:51:22;;;;;;;11.65;4.40;;;7.50;99.90;;;;;;5025886;28;20057;-82
2022/11/15 00:53:48;;;;;;;9.75;4.65;;;7.50;99.90;;;;;;5037656;28;20528;-82
2022/11/15 00:56:13;;;;;;;14.05;6.05;;;7.50;99.90;;;;;;5045944;28;20048;-80
2022/11/15 00:58:39;;;;;;;13.68;7.63;;;7.50;99.90;;;;;;5038921;28;20037;-80
2022/11/15 01:01:10;;;;;;;8.48;4.70;;;7.50;99.90;;;;;;5044975;28;20041;-82
2022/11/15 01:03:37;;;;;;;13.67;5.93;;;7.50;99.90;;;;;;5039713;28;20043;-81
2022/11/15 01:06:03;;;;;;;16.02;6.50;;;7.50;99.90;;;;;;5034384;28;20052;-81
2022/11/15 01:08:29;;;;;;;16.23;6.38;;;7.50;99.90;;;;;;5037459;28;20037;-80
2022/11/15 01:10:59;;;;;;;9.52;5.18;;;7.50;99.90;;;;;;5041085;28;20037;-80
2022/11/15 01:13:25;;;;;;;15.68;6.38;;;7.50;99.90;;;;;;5045485;28;20120;-80
2022/11/15 01:15:50;;;;;;;14.38;4.55;;;7.50;99.90;;;;;;5020017;28;20152;-81
2022/11/15 01:18:16;;;;;;;12.10;5.97;;;7.40;99.90;;;;;;5026449;28;20123;-81
2022/11/15 01:20:42;;;;;;;10.50;6.10;;;7.50;99.90;;;;;;5034275;28;20056;-81
2022/11/15 01:23:08;;;;;;;14.40;5.65;;;7.40;99.90;;;;;;5037500;28;20044;-84
2022/11/15 01:25:34;;;;;;;11.52;5.38;;;7.50;99.90;;;;;;5038843;28;20399;-81
2022/11/15 01:27:59;;;;;;;9.95;4.88;;;7.50;99.90;;;;;;5027663;28;20084;-81
2022/11/15 01:30:25;;;;;;;16.15;5.75;;;7.50;99.90;;;;;;5025070;28;20049;-81
2022/11/15 01:32:51;;;;;;;12.27;5.40;;;7.50;99.90;;;;;;5040137;28;20493;-80
2022/11/15 01:35:16;;;;;;;15.88;6.00;;;7.50;99.90;;;;;;5040634;28;20115;-81
2022/11/15 01:37:42;;;;;;;16.15;5.72;;;7.50;99.90;;;;;;5030930;28;20128;-81
2022/11/15 01:40:08;;;;;;;16.27;5.75;;;7.50;99.90;;;;;;5037967;28;20043;-81
2022/11/15 01:42:34;;;;;;;9.70;5.18;;;7.50;99.90;;;;;;5034793;28;20071;-81
2022/11/15 01:45:00;;;;;;;10.45;4.82;;;7.50;99.90;;;;;;5035802;28;20441;-81
2022/11/15 01:47:33;;;;;;;13.50;5.63;;;7.50;99.90;;;;;;5044204;28;20109;-80
2022/11/15 01:50:03;;;;;;;10.68;4.70;;;7.50;99.90;;;;;;5035780;28;20098;-81
2022/11/15 01:52:32;;;;;;;10.57;4.93;;;7.50;99.90;;;;;;5035147;28;20049;-82
2022/11/15 01:55:04;;;;;;;11.35;5.75;;;7.50;99.90;;;;;;5034463;28;20045;-81
2022/11/15 01:57:30;;;;;;;11.23;4.93;;;7.50;99.90;;;;;;5042180;28;20048;-81
2022/11/15 01:59:59;;;;;;;11.63;4.82;;;7.50;99.90;;;;;;5037012;28;20037;-81
2022/11/15 02:02:24;;;;;;;11.45;4.28;;;7.60;99.90;;;;;;5040953;28;20110;-80
2022/11/15 02:04:50;;;;;;;14.40;5.03;;;7.60;99.90;;;;;;5043401;28;20045;-81
2022/11/15 02:07:18;;;;;;;15.48;5.55;;;7.60;99.90;;;;;;5042468;28;20138;-81
2022/11/15 02:09:45;;;;;;;15.82;7.45;;;7.60;99.90;;;;;;5044443;28;20400;-80
2022/11/15 02:12:15;;;;;;;12.77;5.63;;;7.60;99.90;;;;;;5039634;28;20064;-81
2022/11/15 02:14:44;;;;;;;12.52;5.97;;;7.60;99.90;;;;;;5037060;28;20045;-81
2022/11/15 02:17:47;;;;;;;13.70;4.88;;;7.60;99.90;;;;;;5046017;28;20502;-81
2022/11/15 02:20:43;;;;;;;22.02;5.63;;;7.70;99.90;;;;;;5038636;28;20056;-81
2022/11/15 02:23:56;;;;;;;13.68;5.72;;;7.70;99.90;;;;;;5046566;28;20053;-82
2022/11/15 02:26:59;;;;;;;11.35;5.47;;;7.70;99.90;;;;;;5012739;28;20085;-81
2022/11/15 02:29:53;;;;;;;15.00;6.45;;;7.70;99.90;;;;;;5019837;28;20405;-81
2022/11/15 02:32:35;;;;;;;8.05;4.55;;;7.80;99.90;;;;;;5045306;28;20539;-81
2022/11/15 02:35:09;;;;;;;11.95;5.40;;;7.70;99.90;;;;;;5037441;28;20561;-80
2022/11/15 02:37:44;;;;;;;9.38;3.92;;;7.80;99.90;;;;;;5043271;28;20075;-81
2022/11/15 02:40:22;;;;;;;8.02;4.32;;;7.80;99.90;;;;;;5035907;28;20116;-81
2022/11/15 02:45:48;;;;;;;15.93;5.45;;;7.80;99.90;;;;;;5043430;28;20104;-80
2022/11/15 02:48:15;;;;;;;13.32;5.10;;;7.80;99.90;;;;;;5040012;28;20060;-80
2022/11/15 02:50:42;;;;;;;11.10;5.10;;;7.80;99.90;;;;;;5036060;28;20060;-81
2022/11/15 02:53:09;;;;;;;15.85;6.18;;;7.80;99.90;;;;;;5041370;28;20140;-81
2022/11/15 02:55:44;;;;;;;12.20;5.80;;;7.80;99.90;;;;;;5027227;28;20049;-81
2022/11/15 02:58:34;;;;;;;14.77;5.80;;;7.90;99.90;;;;;;5037114;28;20481;-81
2022/11/15 03:01:17;;;;;;;10.93;5.43;;;7.90;99.90;;;;;;5039877;28;20102;-81
2022/11/15 03:04:08;;;;;;;16.42;7.53;;;7.90;99.90;;;;;;5045920;28;20072;-81
2022/11/15 03:06:43;;;;;;;20.00;6.43;;;7.90;99.90;;;;;;5043720;28;20041;-80
2022/11/15 03:09:35;;;;;;;10.35;4.63;;;7.90;99.90;;;;;;5043201;28;20045;-81
2022/11/15 03:12:17;;;;;;;16.92;5.95;;;7.90;99.90;;;;;;5039713;28;20055;-84
2022/11/15 03:14:56;;;;;;;8.18;4.55;;;7.90;99.90;;;;;;5041876;28;20125;-81
2022/11/15 03:17:29;;;;;;;14.55;6.13;;;8.00;99.90;;;;;;5042346;28;20128;-81
2022/11/15 03:19:58;;;;;;;12.75;6.63;;;8.00;99.90;;;;;;5040984;28;20072;-81
2022/11/15 03:22:27;;;;;;;16.45;7.40;;;8.00;99.90;;;;;;5041403;28;20063;-82
2022/11/15 03:24:57;;;;;;;17.10;7.72;;;8.00;99.90;;;;;;5045828;28;20110;-81
2022/11/15 03:27:28;;;;;;;12.52;5.82;;;8.00;99.90;;;;;;5041670;28;20056;-80
2022/11/15 03:30:01;;;;;;;19.27;8.23;;;8.00;99.90;;;;;;5041528;28;20060;-80
2022/11/15 03:32:30;;;;;;;13.00;5.47;;;8.10;99.90;;;;;;5036849;28;20041;-80
2022/11/15 03:34:58;;;;;;;17.80;6.65;;;8.10;99.90;;;;;;5039692;28;20503;-81
2022/11/15 03:37:40;;;;;;;19.70;6.70;;;8.10;99.90;;;;;;5037608;28;20055;-81
2022/11/15 03:40:06;;;;;;;23.60;8.97;;;8.10;99.90;;;;;;5038935;28;20097;-80
2022/11/15 03:42:43;;;;;;;24.80;8.35;;;8.10;99.90;;;;;;5038715;28;20068;-80
2022/11/15 03:45:22;;;;;;;13.85;6.47;;;8.10;99.90;;;;;;5039197;28;20488;-81
2022/11/15 03:48:01;;;;;;;17.05;6.20;;;8.10;99.90;;;;;;5037186;28;20508;-81
2022/11/15 03:50:28;;;;;;;12.65;6.72;;;8.10;99.90;;;;;;5023189;28;20037;-81
2022/11/15 03:52:55;;;;;;;11.55;6.30;;;8.20;99.90;;;;;;5040385;28;20076;-81
2022/11/15 03:55:21;;;;;;;14.63;7.53;;;8.10;99.90;;;;;;5037765;28;20057;-82
2022/11/15 03:57:56;;;;;;;20.23;6.72;;;8.20;99.90;;;;;;5034134;28;20090;-81
2022/11/15 04:00:22;;;;;;;18.38;7.57;;;8.20;99.90;;;;;;5052457;28;20392;-80
2022/11/15 04:02:48;;;;;;;24.25;7.05;;;8.20;99.90;;;;;;5052070;28;20052;-81
2022/11/15 04:05:13;;;;;;;16.70;8.02;;;8.20;99.90;;;;;;5052031;28;20096;-82
2022/11/15 04:07:39;;;;;;;15.70;6.70;;;8.20;99.90;;;;;;5052384;28;20543;-81
2022/11/15 04:10:05;;;;;;;16.65;7.97;;;8.20;99.90;;;;;;5052468;28;20041;-81
2022/11/15 04:12:37;;;;;;;25.95;7.93;;;8.30;99.90;;;;;;5053139;28;20045;-82
2022/11/15 04:15:10;;;;;;;18.80;8.57;;;8.30;99.90;;;;;;5052932;28;20067;-81
2022/11/15 04:17:45;;;;;;;12.98;6.45;;;8.30;99.90;;;;;;5036806;28;20042;-81
2022/11/15 04:25:44;;;;;;;20.02;6.47;;;8.40;99.90;;;;;;5018001;28;20463;-81
2022/11/15 04:28:11;;;;;;;21.63;8.30;;;8.50;99.90;;;;;;5032302;28;20095;-81
2022/11/15 04:30:37;;;;;;;16.17;7.47;;;8.50;99.90;;;;;;5046885;28;20051;-81
2022/11/15 04:33:03;;;;;;;16.45;7.10;;;8.50;99.90;;;;;;5052446;28;20168;-82
2022/11/15 04:35:28;;;;;;;13.88;6.60;;;8.50;99.90;;;;;;5052606;28;20044;-81
2022/11/15 04:37:55;;;;;;;17.60;7.47;;;8.60;99.90;;;;;;5052535;28;20167;-81
2022/11/15 04:40:21;;;;;;;15.02;7.78;;;8.60;99.90;;;;;;5046904;28;20037;-81
2022/11/15 04:42:46;;;;;;;25.30;8.20;;;8.70;99.90;;;;;;5032870;28;20045;-81
2022/11/15 04:45:12;;;;;;;20.77;7.85;;;8.70;99.90;;;;;;5031698;28;20045;-82
2022/11/15 04:47:38;;;;;;;19.17;7.28;;;8.70;99.90;;;;;;5015262;28;20094;-82
2022/11/15 04:50:04;;;;;;;13.23;6.65;;;8.70;99.90;;;;;;5032015;28;20045;-81
2022/11/15 04:52:29;;;;;;;36.97;8.70;;;8.80;99.90;;;;;;5046275;28;20060;-81
2022/11/15 04:54:55;;;;;;;20.35;6.65;;;8.80;99.90;;;;;;5034191;28;20053;-82
2022/11/15 04:57:21;;;;;;;18.83;8.50;;;8.90;99.90;;;;;;5034642;28;20045;-81
2022/11/15 04:59:49;;;;;;;21.23;8.45;;;8.90;99.90;;;;;;5036961;28;20030;-81
2022/11/15 05:02:15;;;;;;;18.58;6.43;;;9.00;99.90;;;;;;5043142;28;20621;-81
2022/11/15 05:04:43;;;;;;;22.60;8.02;;;9.00;99.90;;;;;;5036969;28;20045;-82
2022/11/15 05:07:09;;;;;;;20.60;9.48;;;9.00;99.90;;;;;;5042113;28;20051;-81
2022/11/15 05:09:34;;;;;;;14.10;7.43;;;9.00;99.90;;;;;;5037194;28;20048;-82
2022/11/15 05:12:00;;;;;;;12.57;6.43;;;9.10;99.90;;;;;;5038433;28;20071;-80
2022/11/15 05:14:25;;;;;;;17.15;8.93;;;9.10;99.90;;;;;;5037906;28;20068;-84
2022/11/15 05:16:51;;;;;;;16.25;7.90;;;9.10;99.90;;;;;;5040001;28;20049;-80
2022/11/15 05:19:17;;;;;;;9.95;5.78;;;9.10;99.90;;;;;;5046080;28;20045;-80
2022/11/15 05:21:43;;;;;;;17.25;7.70;;;9.20;99.90;;;;;;5039968;28;20137;-81
2022/11/15 05:24:11;;;;;;;19.98;7.85;;;9.20;99.90;;;;;;5033080;28;20084;-82
2022/11/15 05:26:36;;;;;;;16.58;7.20;;;9.20;99.90;;;;;;5041254;28;20180;-81
2022/11/15 05:29:02;;;;;;;12.02;5.57;;;9.20;99.90;;;;;;5038461;28;20084;-81
2022/11/15 05:31:28;;;;;;;16.90;7.05;;;9.20;99.90;;;;;;5040497;28;20106;-81
2022/11/15 05:33:55;;;;;;;15.48;8.15;;;9.30;99.90;;;;;;5042836;28;20056;-81
2022/11/15 05:36:36;;;;;;;11.68;6.18;;;9.30;99.90;;;;;;5038258;28;20622;-81
2022/11/15 05:39:03;;;;;;;18.50;7.20;;;9.30;99.90;;;;;;5039000;28;20049;-81
2022/11/15 05:41:37;;;;;;;15.95;6.43;;;9.30;99.90;;;;;;5041519;28;20045;-81
2022/11/15 05:44:06;;;;;;;17.05;6.55;;;9.40;99.90;;;;;;5034851;28;20049;-81
2022/11/15 05:46:33;;;;;;;15.75;7.00;;;9.40;99.90;;;;;;5040272;28;20568;-81
2022/11/15 05:48:59;;;;;;;17.17;7.47;;;9.50;99.90;;;;;;5039642;28;20120;-82
2022/11/15 05:51:28;;;;;;;11.80;6.13;;;9.50;99.90;;;;;;5044708;28;20407;-81
2022/11/15 05:53:56;;;;;;;13.63;5.97;;;9.50;99.90;;;;;;5042569;28;20526;-84
2022/11/15 05:56:21;;;;;;;13.27;6.68;;;9.50;99.90;;;;;;5038964;28;20041;-81
2022/11/15 05:58:47;;;;;;;18.65;7.15;;;9.60;99.90;;;;;;5038779;28;20045;-80
2022/11/15 06:01:13;;;;;;;16.30;6.85;;;9.50;99.90;;;;;;5041533;28;20094;-81
2022/11/15 06:03:39;;;;;;;16.58;7.30;;;9.60;99.90;;;;;;5040609;28;20057;-82
2022/11/15 06:06:04;;;;;;;14.60;5.78;;;9.60;99.90;;;;;;5044780;28;20391;-83
2022/11/15 06:08:30;;;;;;;14.05;6.32;;;9.70;99.90;;;;;;5038688;28;20053;-81
2022/11/15 06:10:56;;;;;;;16.92;6.50;;;9.70;99.90;;;;;;5044461;28;20047;-81
2022/11/15 06:13:21;;;;;;;14.45;5.82;;;9.70;99.90;;;;;;5050162;28;20468;-81
2022/11/15 06:15:47;;;;;;;16.08;5.63;;;9.70;99.90;;;;;;5040149;28;20095;-82
2022/11/15 06:18:13;;;;;;;18.65;6.15;;;9.80;99.90;;;;;;5021875;28;20053;-80
2022/11/15 06:20:41;;;;;;;12.73;6.18;;;9.80;99.90;;;;;;5037583;28;20043;-81
2022/11/15 06:23:06;;;;;;;14.45;6.60;;;9.80;99.90;;;;;;5036786;28;20402;-79
2022/11/15 06:25:32;;;;;;;17.52;6.78;;;9.80;99.90;;;;;;5043892;28;20056;-79
2022/11/15 06:27:58;;;;;;;16.30;6.22;;;9.80;99.90;;;;;;5019899;28;20081;-80
2022/11/15 06:30:25;;;;;;;17.38;6.72;;;9.80;99.90;;;;;;5036548;28;20034;-81
2022/11/15 06:32:57;;;;;;;16.23;5.70;;;9.90;99.90;;;;;;5047126;28;20053;-84
2022/11/15 06:35:23;;;;;;;17.27;6.90;;;9.90;99.90;;;;;;5045325;28;20049;-83
2022/11/15 06:37:49;;;;;;;11.20;6.32;;;9.90;99.90;;;;;;5037547;28;20059;-84
2022/11/15 06:40:15;;;;;;;17.15;7.20;;;9.90;99.90;;;;;;5036097;28;20457;-82
2022/11/15 06:42:40;;;;;;;17.30;6.55;;;10.00;99.90;;;;;;5034378;28;20132;-83
2022/11/15 06:45:07;;;;;;;18.23;6.70;;;10.00;99.90;;;;;;5035792;28;20124;-81
2022/11/15 06:47:33;;;;;;;20.08;7.13;;;10.00;99.90;;;;;;5040898;28;20048;-82
2022/11/15 06:49:58;;;;;;;15.60;6.65;;;10.00;99.90;;;;;;5039746;28;20465;-81
2022/11/15 06:52:24;;;;;;;14.70;6.05;;;10.10;99.90;;;;;;5045670;28;20053;-82
2022/11/15 06:54:50;;;;;;;14.07;7.85;;;10.10;99.90;;;;;;5032995;28;20076;-82
2022/11/15 06:57:15;;;;;;;19.58;6.47;;;10.10;99.90;;;;;;5039181;28;20045;-81
2022/11/15 06:59:41;;;;;;;10.88;5.45;;;10.00;99.90;;;;;;5035368;28;20524;-82
2022/11/15 07:02:13;;;;;;;13.18;6.47;;;10.10;99.90;;;;;;5022567;28;20045;-82
2022/11/15 07:04:41;;;;;;;15.60;6.72;;;10.10;99.90;;;;;;5032978;28;20064;-83
2022/11/15 07:07:07;;;;;;;14.35;5.97;;;10.10;99.90;;;;;;5033956;28;20053;-83
2022/11/15 07:09:33;;;;;;;20.65;6.75;;;10.10;99.90;;;;;;5034981;28;20056;-82
2022/11/15 07:11:58;;;;;;;10.82;6.43;;;10.10;99.90;;;;;;5037543;28;20373;-81
2022/11/15 07:14:24;;;;;;;12.10;5.97;;;10.10;99.90;;;;;;5032667;28;20128;-80
2022/11/15 07:16:50;;;;;;;15.40;5.93;;;10.20;99.90;;;;;;5033771;28;20464;-80
2022/11/15 07:19:15;;;;;;;10.90;5.97;;;10.20;99.90;;;;;;5034061;28;20397;-79
2022/11/15 07:21:41;;;;;;;14.18;6.93;;;10.20;99.90;;;;;;5035887;28;20554;-79
2022/11/15 07:24:07;;;;;;;11.35;6.97;;;10.20;99.90;;;;;;5033325;28;20049;-80
2022/11/15 07:26:32;;;;;;;17.20;6.47;;;10.30;99.90;;;;;;5052876;28;20057;-80
2022/11/15 07:28:58;;;;;;;10.32;5.00;;;10.30;99.90;;;;;;5046103;28;20084;-82
2022/11/15 07:31:25;;;;;;;10.80;5.30;;;10.30;99.90;;;;;;5033268;28;20075;-82
2022/11/15 07:33:50;;;;;;;15.68;6.07;;;10.30;99.90;;;;;;5033718;28;20049;-81
2022/11/15 07:36:16;;;;;;;11.82;5.28;;;10.30;99.90;;;;;;5016104;28;20472;-81
2022/11/15 07:38:42;;;;;;;14.40;6.05;;;10.40;99.90;;;;;;5033161;28;20065;-81
2022/11/15 07:41:08;;;;;;;18.83;6.60;;;10.30;99.90;;;;;;5032450;28;20071;-81
2022/11/15 07:43:34;;;;;;;9.77;5.53;;;10.40;99.90;;;;;;5038056;28;20150;-82
2022/11/15 07:46:05;;;;;;;13.75;6.07;;;10.40;99.90;;;;;;5052167;28;20045;-81
2022/11/15 07:48:31;;;;;;;14.30;6.32;;;10.40;99.90;;;;;;5041388;28;20115;-81
2022/11/15 07:50:57;;;;;;;11.85;5.57;;;10.50;99.90;;;;;;5033000;28;20041;-81
2022/11/15 07:53:22;;;;;;;9.55;4.65;;;10.50;99.90;;;;;;5035317;28;20063;-81
2022/11/15 07:55:48;;;;;;;14.10;6.55;;;10.50;99.90;;;;;;5051083;28;20088;-80
2022/11/15 07:58:14;;;;;;;14.65;6.55;;;10.50;99.90;;;;;;5052746;28;20048;-80
2022/11/15 08:00:39;;;;;;;11.00;5.57;;;10.60;99.90;;;;;;5027879;28;20469;-81
2022/11/15 08:03:07;;;;;;;9.85;6.03;;;10.60;99.90;;;;;;5031513;28;20159;-82
2022/11/15 08:05:34;;;;;;;7.90;4.95;;;10.60;99.90;;;;;;5032995;28;20137;-81
2022/11/15 08:08:00;;;;;;;11.48;5.50;;;10.60;99.90;;;;;;5048976;28;20041;-81
2022/11/15 08:10:27;;;;;;;13.18;5.47;;;10.70;99.90;;;;;;5051358;28;20120;-81
2022/11/15 08:13:00;;;;;;;11.13;6.00;;;10.70;99.90;;;;;;5051573;28;20127;-81
2022/11/15 08:15:27;;;;;;;13.77;6.22;;;10.70;99.90;;;;;;5048262;28;20084;-81
2022/11/15 08:17:57;;;;;;;10.50;5.38;;;10.70;99.90;;;;;;5051735;28;20062;-81
2022/11/15 08:20:24;;;;;;;16.00;5.35;;;10.80;99.90;;;;;;5052799;28;20131;-80
2022/11/15 08:22:50;;;;;;;13.60;4.65;;;10.80;99.90;;;;;;5061117;28;20106;-81
2022/11/15 08:25:16;;;;;;;19.45;5.47;;;10.80;99.90;;;;;;5053101;28;20038;-81
2022/11/15 08:27:42;;;;;;;12.50;5.93;;;10.80;99.90;;;;;;5036962;28;20041;-80
2022/11/15 08:30:08;;;;;;;11.98;5.57;;;10.80;99.90;;;;;;5033957;28;20045;-81
2022/11/15 08:32:34;;;;;;;10.15;4.55;;;10.90;99.90;;;;;;5032594;28;20056;-82
2022/11/15 08:35:00;;;;;;;10.77;5.60;;;10.90;99.90;;;;;;5033315;28;20045;-82
2022/11/15 08:37:25;;;;;;;10.77;5.95;;;11.00;99.90;;;;;;5031367;28;20041;-81
2022/11/15 08:39:51;;;;;;;11.52;5.15;;;11.00;99.90;;;;;;5038343;28;20392;-81
2022/11/15 08:42:17;;;;;;;8.77;4.88;;;11.00;99.90;;;;;;5034587;28;20128;-81
2022/11/15 08:44:42;;;;;;;11.63;6.22;;;11.00;99.90;;;;;;5037796;28;20248;-81
2022/11/15 08:47:11;;;;;;;12.70;5.25;;;11.00;99.90;;;;;;5031059;28;20049;-81
2022/11/15 08:49:37;;;;;;;9.77;5.35;;;11.00;99.90;;;;;;5035723;28;20040;-81
2022/11/15 08:52:03;;;;;;;16.58;5.85;;;11.10;99.90;;;;;;5051178;28;20439;-82
2022/11/15 08:54:29;;;;;;;10.82;5.35;;;11.10;99.90;;;;;;5052150;28;20053;-81
2022/11/15 08:56:54;;;;;;;7.63;4.72;;;11.10;99.90;;;;;;5052052;28;20127;-81
2022/11/15 08:59:20;;;;;;;14.43;6.10;;;11.10;99.90;;;;;;5049043;28;20053;-81
2022/11/15 09:01:46;;;;;;;8.95;4.57;;;11.20;99.90;;;;;;5037614;28;20033;-81
2022/11/15 09:04:11;;;;;;;12.60;5.38;;;11.20;99.90;;;;;;5031279;28;20127;-82
2022/11/15 09:06:37;;;;;;;11.10;5.70;;;11.20;99.90;;;;;;5032705;28;20053;-81
2022/11/15 09:09:03;;;;;;;9.93;5.40;;;11.20;99.90;;;;;;5039165;28;20053;-82
2022/11/15 09:11:29;;;;;;;13.00;5.97;;;11.30;99.90;;;;;;5042663;28;20049;-82
2022/11/15 09:13:55;;;;;;;13.35;5.40;;;11.30;99.90;;;;;;5043668;28;20049;-82
2022/11/15 09:16:20;;;;;;;10.90;4.82;;;11.30;99.90;;;;;;5045122;28;20111;-82
2022/11/15 09:18:46;;;;;;;13.02;5.07;;;11.30;99.90;;;;;;5034648;28;20507;-83
2022/11/15 09:21:12;;;;;;;11.63;6.13;;;11.40;99.90;;;;;;5042024;28;20121;-82
2022/11/15 09:23:38;;;;;;;12.05;5.00;;;11.40;99.90;;;;;;5042622;28;20046;-82
2022/11/15 09:26:05;;;;;;;15.85;6.07;;;11.40;99.90;;;;;;5049725;28;20042;-85
2022/11/15 09:28:32;;;;;;;8.13;4.72;;;11.50;99.90;;;;;;5038562;28;20045;-83
2022/11/15 09:30:59;;;;;;;13.93;5.60;;;11.50;99.90;;;;;;5033530;28;20041;-82
2022/11/15 09:33:26;;;;;;;12.20;5.10;;;11.60;99.90;;;;;;5031212;28;20046;-82
2022/11/15 09:35:52;;;;;;;12.40;5.07;;;11.60;99.90;;;;;;5032256;28;20049;-83
2022/11/15 09:38:18;;;;;;;10.85;5.32;;;11.70;99.90;;;;;;5035200;28;20045;-85
2022/11/15 09:40:45;;;;;;;11.38;6.25;;;11.70;99.90;;;;;;5038604;28;20093;-82
2022/11/15 09:43:35;;;;;;;9.55;4.55;;;11.80;99.90;;;;;;5047636;28;20049;-82
2022/11/15 09:46:15;;;;;;;9.95;4.47;;;11.80;99.90;;;;;;5043031;28;20115;-83
2022/11/15 09:48:55;;;;;;;11.20;5.25;;;11.90;99.90;;;;;;5036280;28;20469;-82
2022/11/15 09:51:31;;;;;;;7.72;4.25;;;11.80;99.90;;;;;;5045424;28;20048;-82
2022/11/15 09:54:30;;;;;;;15.10;5.07;;;11.90;99.90;;;;;;5033863;28;20405;-82
2022/11/15 09:57:10;;;;;;;8.45;4.38;;;11.80;99.90;;;;;;5035210;28;20049;-83
2022/11/15 10:00:09;;;;;;;8.25;4.45;;;11.80;99.90;;;;;;5034192;28;20388;-81
2022/11/15 10:02:47;;;;;;;6.50;3.95;;;11.90;99.90;;;;;;5035902;28;20046;-82
2022/11/15 10:05:18;;;;;;;8.73;4.45;;;11.90;99.90;;;;;;5034945;28;20504;-82
2022/11/15 10:08:28;;;;;;;5.60;3.20;;;11.80;99.90;;;;;;5050452;28;20076;-83
2022/11/15 10:11:32;;;;;;;4.57;3.38;;;11.80;99.90;;;;;;5035575;28;20045;-82
2022/11/15 10:14:05;;;;;;;5.03;3.00;;;11.90;99.90;;;;;;5051695;28;20419;-81
2022/11/15 10:17:01;;;;;;;7.45;3.45;;;11.90;99.90;;;;;;5054686;28;20049;-82
2022/11/15 10:19:51;;;;;;;4.43;3.10;;;11.90;99.90;;;;;;5051221;28;20052;-82
2022/11/15 10:22:26;;;;;;;6.50;2.88;;;11.90;99.90;;;;;;5047251;28;20432;-83
2022/11/15 10:25:08;;;;;;;3.63;2.42;;;11.90;99.90;;;;;;5033844;28;20119;-81
2022/11/15 10:27:34;;;;;;;3.65;2.20;;;12.00;99.90;;;;;;5034730;28;20045;-82
2022/11/15 10:29:59;;;;;;;6.80;3.08;;;12.00;99.90;;;;;;5034008;28;20388;-82
2022/11/15 10:32:25;;;;;;;3.63;2.00;;;12.10;99.90;;;;;;5053344;28;20049;-81
2022/11/15 10:34:51;;;;;;;4.97;2.33;;;12.20;99.90;;;;;;5047009;28;20045;-81
2022/11/15 10:37:31;;;;;;;2.17;1.67;;;12.30;99.90;;;;;;5034547;28;20451;-83
2022/11/15 10:40:17;;;;;;;3.47;2.65;;;12.40;99.90;;;;;;5046996;28;20175;-81
2022/11/15 10:42:43;;;;;;;4.07;1.95;;;12.40;99.90;;;;;;5038974;28;20404;-80
2022/11/15 10:45:30;;;;;;;2.17;1.50;;;12.60;99.90;;;;;;5029642;28;20041;-80
2022/11/15 10:48:22;;;;;;;3.42;1.67;;;12.60;99.90;;;;;;5060427;28;20041;-80
2022/11/15 10:50:50;;;;;;;9.55;1.80;;;12.70;99.90;;;;;;5047649;28;20045;-81
2022/11/15 10:53:43;;;;;;;2.65;1.70;;;12.60;99.90;;;;;;5040826;28;20053;-79
2022/11/15 10:56:15;;;;;;;2.90;1.58;;;12.60;99.90;;;;;;5044325;28;20053;-80
2022/11/15 10:58:51;;;;;;;5.28;2.15;;;12.60;99.90;;;;;;5053409;28;20435;-79
2022/11/15 11:01:21;;;;;;;2.78;1.52;;;12.60;99.90;;;;;;5050447;28;20044;-80
2022/11/15 11:04:07;;;;;;;1.88;1.33;;;12.50;99.90;;;;;;5050378;28;20041;-79
2022/11/15 11:06:56;;;;;;;2.20;1.33;;;12.40;99.90;;;;;;5050313;28;20076;-83
2022/11/15 11:09:35;;;;;;;2.05;1.15;;;12.40;99.90;;;;;;5050656;28;20049;-80
2022/11/15 11:12:02;;;;;;;1.02;0.93;;;12.30;99.90;;;;;;5046561;28;20075;-81
2022/11/15 11:14:31;;;;;;;3.28;1.45;;;12.30;99.90;;;;;;5047552;28;20053;-80
2022/11/15 11:17:05;;;;;;;4.53;1.23;;;12.40;99.90;;;;;;5044428;28;20053;-81
2022/11/15 11:19:40;;;;;;;5.13;1.20;;;12.40;99.90;;;;;;5035191;28;20077;-79
2022/11/15 11:22:41;;;;;;;2.60;1.20;;;12.40;99.90;;;;;;5042740;28;20514;-79
2022/11/15 11:25:41;;;;;;;3.22;1.45;;;12.40;99.90;;;;;;5043883;28;20052;-84
2022/11/15 11:28:28;;;;;;;2.20;1.13;;;12.30;99.90;;;;;;5042033;28;20041;-80
2022/11/15 11:31:12;;;;;;;1.35;1.00;;;12.30;99.90;;;;;;5048801;28;20492;-81
2022/11/15 11:33:49;;;;;;;2.92;1.35;;;12.30;99.90;;;;;;5053229;28;20049;-80
2022/11/15 11:36:36;;;;;;;4.00;1.25;;;12.30;99.90;;;;;;5047552;28;20045;-80
2022/11/15 11:39:11;;;;;;;1.40;0.85;;;12.30;99.90;;;;;;5038199;28;20380;-81
2022/11/15 11:41:58;;;;;;;1.98;1.35;;;12.30;99.90;;;;;;5033096;28;20053;-80
2022/11/15 11:44:51;;;;;;;4.45;1.40;;;12.40;99.90;;;;;;5053085;28;20045;-81
2022/11/15 11:47:24;;;;;;;;;;;12.40;99.90;;;;;;5056785;28;20081;-81
2022/11/15 11:49:53;;;;;;;7.10;1.08;;;12.50;99.90;;;;;;5051126;28;20269;-81
2022/11/15 11:52:33;;;;;;;2.40;0.93;;;12.60;99.90;;;;;;5037344;28;20093;-79
2022/11/15 11:55:21;;;;;;;2.05;1.45;;;12.60;99.90;;;;;;5015862;28;20061;-79
2022/11/15 11:58:02;;;;;;;0.77;0.60;;;12.60;99.90;;;;;;5033903;28;20115;-80
2022/11/15 12:00:33;;;;;;;1.40;0.95;;;12.80;99.90;;;;;;5050681;28;20045;-81
2022/11/15 12:03:18;;;;;;;5.82;1.10;;;12.80;99.90;;;;;;5042658;28;20123;-79
2022/11/15 12:05:49;;;;;;;1.13;1.00;;;12.90;99.90;;;;;;5052653;28;20547;-79
2022/11/15 12:08:50;;;;;;;3.33;1.65;;;13.00;99.90;;;;;;5050905;28;20051;-80
2022/11/15 12:11:47;;;;;;;2.88;1.42;;;13.10;99.90;;;;;;5039445;28;20489;-82
2022/11/15 12:14:34;;;;;;;3.13;0.95;;;13.10;99.90;;;;;;5043703;28;20059;-80
2022/11/15 12:17:00;;;;;;;8.00;1.80;;;13.20;99.90;;;;;;5039001;28;20046;-80
2022/11/15 12:19:28;;;;;;;1.42;0.93;;;13.20;99.90;;;;;;5034356;28;20365;-80
2022/11/15 12:22:20;;;;;;;4.80;1.05;;;13.30;99.90;;;;;;5034789;28;20124;-81
2022/11/15 12:24:58;;;;;;;2.58;1.08;;;13.40;99.90;;;;;;5039738;28;20124;-80
2022/11/15 12:27:35;;;;;;;3.28;1.13;;;13.40;99.90;;;;;;5039996;28;20103;-81
2022/11/15 12:30:19;;;;;;;5.32;1.10;;;13.30;99.90;;;;;;5030534;28;20077;-82
2022/11/15 12:33:03;;;;;;;6.20;1.08;;;13.30;99.90;;;;;;5025099;28;20046;-80
2022/11/15 12:35:37;;;;;;;1.77;1.27;;;13.40;99.90;;;;;;5036220;28;20389;-79
2022/11/15 12:38:03;;;;;;;4.13;0.82;;;13.30;99.90;;;;;;5031433;28;20103;-83
2022/11/15 12:40:34;;;;;;;3.75;1.25;;;13.30;99.90;;;;;;5035036;28;20044;-81
2022/11/15 12:43:04;;;;;;;1.27;0.90;;;13.30;99.90;;;;;;5034782;28;20061;-80
2022/11/15 12:45:37;;;;;;;4.55;0.90;;;13.30;99.90;;;;;;5035313;28;20304;-81
2022/11/15 12:48:18;;;;;;;1.70;0.90;;;13.40;99.90;;;;;;5036744;28;20108;-80
2022/11/15 12:50:53;;;;;;;3.28;1.17;;;13.50;99.90;;;;;;5039015;28;20037;-80
2022/11/15 12:53:26;;;;;;;3.60;1.00;;;13.60;99.90;;;;;;5033012;28;20072;-81
2022/11/15 12:56:16;;;;;;;2.03;0.70;;;13.70;99.90;;;;;;5035870;28;20064;-80
2022/11/15 12:58:47;;;;;;;1.17;0.75;;;13.60;99.90;;;;;;5037998;28;20056;-80
2022/11/15 13:01:33;;;;;;;1.65;0.85;;;13.40;99.90;;;;;;5037569;28;20049;-80
2022/11/15 13:04:24;;;;;;;6.03;0.75;;;13.20;99.90;;;;;;5035013;28;20127;-80
2022/11/15 13:06:56;;;;;;;2.15;0.70;;;13.10;99.90;;;;;;5033574;28;20450;-80
2022/11/15 13:09:37;;;;;;;0.40;0.40;;;12.90;99.90;;;;;;5040774;28;20040;-79
2022/11/15 13:12:07;;;;;;;2.10;1.40;;;12.80;99.90;;;;;;5038166;28;20515;-80
2022/11/15 13:14:45;;;;;;;3.45;0.80;;;12.70;99.90;;;;;;5037809;28;20052;-79